EFKK/KOK METAR and TAF weather

Enter ICAO airport designator
Station Type Date Time Source
EFKK METAR 2019/06/18 14:50 UTC NOAA

EFKK 181450Z AUTO 21013KT 180V250 CAVOK 22/09 Q1009


Station Type Date Time Source
EFKK Decoded METAR 2019/06/18 14:50 UTC NOAA

Kruunupyy, Finland (EFKK) 63-43N 023-09E
Jun 18, 2019 - 10:50 AM EDT / 2019.06.18 1450 UTC
Wind: from the SSW (210 degrees) at 15 MPH (13 KT) (direction variable):0
Visibility: greater than 7 mile(s):0
Temperature: 71 F (22 C)
Dew Point: 48 F (9 C)
Relative Humidity: 43%
Pressure (altimeter): 29.80 in. Hg (1009 hPa)
ob: EFKK 181450Z AUTO 21013KT 180V250 CAVOK 22/09 Q1009
cycle: 15

Station Type Date Time Source
EFKK TAF 2019/04/22 21:42 UTC NOAA

TAF EFKK 222023Z 2221/2321 18006KT CAVOK

Example: see airport list